createdAt,value
2022-11-25T00:00:01.634Z,76.61
2022-11-25T00:04:00.694Z,76.56
2022-11-25T00:07:27.844Z,76.66
2022-11-25T00:10:55.146Z,76.69
2022-11-25T00:14:22.382Z,76.90
2022-11-25T00:17:49.088Z,77.23
2022-11-25T00:21:20.181Z,77.27
2022-11-25T00:24:47.152Z,77.28
2022-11-25T00:28:18.546Z,76.76
2022-11-25T00:31:45.919Z,76.87
2022-11-25T00:35:16.088Z,76.69
2022-11-25T00:38:43.222Z,76.56
2022-11-25T00:42:28.430Z,76.75
2022-11-25T00:45:58.536Z,76.64
2022-11-25T00:49:26.741Z,76.52
2022-11-25T00:52:55.928Z,76.71
2022-11-25T00:56:23.835Z,76.54
2022-11-25T00:59:51.279Z,76.73
2022-11-25T01:03:21.197Z,76.62
2022-11-25T01:06:53.430Z,76.55
2022-11-25T01:10:21.672Z,76.77
2022-11-25T01:13:49.655Z,76.83
2022-11-25T01:17:16.824Z,77.00
2022-11-25T01:20:43.832Z,77.19
2022-11-25T01:24:14.067Z,77.04
2022-11-25T01:27:43.440Z,76.80
2022-11-25T01:31:12.705Z,76.85
2022-11-25T01:34:39.557Z,76.87
2022-11-25T01:38:06.921Z,76.82
2022-11-25T01:41:36.194Z,76.80
2022-11-25T01:45:34.493Z,76.80
2022-11-25T01:49:06.146Z,76.68
2022-11-25T01:52:37.685Z,76.65
2022-11-25T01:56:07.589Z,76.52
2022-11-25T01:59:44.025Z,76.62
2022-11-25T02:03:12.294Z,76.56
2022-11-25T02:06:44.334Z,76.68
2022-11-25T02:10:17.229Z,76.92
2022-11-25T02:13:42.953Z,77.17
2022-11-25T02:17:10.832Z,76.91
2022-11-25T02:20:40.231Z,76.77
2022-11-25T02:24:16.145Z,76.65
2022-11-25T02:27:46.307Z,76.87
2022-11-25T02:31:13.593Z,77.08
2022-11-25T02:34:49.948Z,77.08
2022-11-25T02:38:20.876Z,76.85
2022-11-25T02:41:53.289Z,76.90
2022-11-25T02:45:27.923Z,76.79
2022-11-25T02:49:11.687Z,76.67
2022-11-25T02:52:41.065Z,76.49
2022-11-25T02:56:10.858Z,76.53
2022-11-25T02:59:38.829Z,76.67
2022-11-25T03:03:06.552Z,76.88
2022-11-25T03:06:41.255Z,76.86
2022-11-25T03:10:10.380Z,76.94
2022-11-25T03:13:40.395Z,76.82
2022-11-25T03:17:11.124Z,76.92
2022-11-25T03:20:39.951Z,76.73
2022-11-25T03:24:10.956Z,76.84
2022-11-25T03:27:42.817Z,77.07
2022-11-25T03:31:13.504Z,77.07
2022-11-25T03:34:43.061Z,76.95
2022-11-25T03:38:10.581Z,76.74
2022-11-25T03:41:44.514Z,76.75
2022-11-25T03:45:15.289Z,76.73
2022-11-25T03:48:44.330Z,76.66
2022-11-25T03:52:12.086Z,76.47
2022-11-25T03:55:41.174Z,76.51
2022-11-25T03:59:09.462Z,76.79
2022-11-25T04:02:37.016Z,76.86
2022-11-25T04:06:04.565Z,76.97
2022-11-25T04:09:35.372Z,76.86
2022-11-25T04:13:07.378Z,76.81
2022-11-25T04:16:41.053Z,76.49
2022-11-25T04:20:14.315Z,76.57
2022-11-25T04:23:45.170Z,76.65
2022-11-25T04:27:13.038Z,76.64
2022-11-25T04:30:42.376Z,76.91
2022-11-25T04:34:10.961Z,76.91
2022-11-25T04:37:44.197Z,77.03
2022-11-25T04:41:18.044Z,77.40
2022-11-25T04:45:01.041Z,77.24
2022-11-25T04:48:32.851Z,76.97
2022-11-25T04:52:00.090Z,76.95
2022-11-25T04:55:30.182Z,76.95
2022-11-25T04:59:16.635Z,77.19
2022-11-25T05:02:47.489Z,77.23
2022-11-25T05:06:22.579Z,77.21
2022-11-25T05:09:49.982Z,76.99
2022-11-25T05:13:25.044Z,77.15
2022-11-25T05:16:52.469Z,76.88
2022-11-25T05:20:27.427Z,76.85
2022-11-25T05:23:56.958Z,76.90
2022-11-25T05:27:26.574Z,76.96
2022-11-25T05:30:54.255Z,77.09
2022-11-25T05:34:21.036Z,77.02
2022-11-25T05:37:48.253Z,77.29
2022-11-25T05:41:15.043Z,77.28
2022-11-25T05:44:43.279Z,77.30
2022-11-25T05:48:10.285Z,77.32
2022-11-25T05:51:40.351Z,77.06
2022-11-25T05:55:10.694Z,77.38
2022-11-25T05:58:38.874Z,76.94
2022-11-25T06:02:06.668Z,77.00
2022-11-25T06:05:35.847Z,76.83
2022-11-25T06:09:03.289Z,76.94
2022-11-25T06:12:30.621Z,76.77
2022-11-25T06:16:03.543Z,76.66
2022-11-25T06:19:34.502Z,76.85
2022-11-25T06:23:02.430Z,76.75
2022-11-25T06:26:32.865Z,76.69
2022-11-25T06:30:01.103Z,76.54
2022-11-25T06:33:27.748Z,76.62
2022-11-25T06:36:55.816Z,76.76
2022-11-25T06:40:22.861Z,76.90
2022-11-25T06:43:51.330Z,76.94
2022-11-25T06:47:18.585Z,77.17
2022-11-25T06:50:45.424Z,76.99
2022-11-25T06:54:12.660Z,76.97
2022-11-25T06:57:39.374Z,76.88
2022-11-25T07:01:15.868Z,77.16
2022-11-25T07:04:44.944Z,77.15
2022-11-25T07:08:11.746Z,77.23
2022-11-25T07:11:41.674Z,77.24
2022-11-25T07:15:10.080Z,77.20
2022-11-25T07:18:39.898Z,76.88
2022-11-25T07:22:07.430Z,76.85
2022-11-25T07:25:38.417Z,76.68
2022-11-25T07:29:23.340Z,76.65
2022-11-25T07:32:58.407Z,76.53
2022-11-25T07:36:25.492Z,76.55
2022-11-25T07:39:52.121Z,76.63
2022-11-25T07:43:24.248Z,76.54
2022-11-25T07:46:52.290Z,76.57
2022-11-25T07:50:19.450Z,76.68
2022-11-25T07:53:57.053Z,76.87
2022-11-25T07:57:36.950Z,77.04
2022-11-25T08:01:09.770Z,77.19
2022-11-25T08:04:39.904Z,77.06
2022-11-25T08:08:06.869Z,77.06
2022-11-25T08:11:35.200Z,77.18
2022-11-25T08:15:06.042Z,77.08
2022-11-25T08:18:35.455Z,76.98
2022-11-25T08:22:02.225Z,76.94
2022-11-25T08:25:30.022Z,76.75
2022-11-25T08:28:58.051Z,76.81
2022-11-25T08:32:25.006Z,76.90
2022-11-25T08:35:58.303Z,76.90
2022-11-25T08:43:12.628Z,76.68
2022-11-25T08:46:41.120Z,76.63
2022-11-25T08:50:10.616Z,76.48
2022-11-25T08:53:38.613Z,76.46
2022-11-25T08:57:09.610Z,76.57
2022-11-25T09:00:36.477Z,76.75
2022-11-25T09:04:02.916Z,76.78
2022-11-25T09:07:30.944Z,76.75
2022-11-25T09:10:57.791Z,76.80
2022-11-25T09:14:25.296Z,76.99
2022-11-25T09:17:58.662Z,76.94
2022-11-25T09:21:26.125Z,77.12
2022-11-25T09:24:53.088Z,76.89
2022-11-25T09:28:19.676Z,76.84
2022-11-25T09:31:51.411Z,76.71
2022-11-25T09:35:21.976Z,76.74
2022-11-25T09:38:49.407Z,76.66
2022-11-25T09:42:51.814Z,76.47
2022-11-25T09:46:46.263Z,76.23
2022-11-25T09:50:22.283Z,76.12
2022-11-25T09:53:54.867Z,76.42
2022-11-25T09:57:27.700Z,76.39
2022-11-25T10:00:55.592Z,76.32
2022-11-25T10:04:26.935Z,76.41
2022-11-25T10:07:59.566Z,76.34
2022-11-25T10:11:36.404Z,76.48
2022-11-25T10:15:06.321Z,76.52
2022-11-25T10:18:40.969Z,76.67
2022-11-25T10:22:19.380Z,76.52
2022-11-25T10:25:51.884Z,76.74
2022-11-25T10:29:27.671Z,76.76
2022-11-25T10:33:04.984Z,76.82
2022-11-25T10:36:34.939Z,76.62
2022-11-25T10:40:01.848Z,76.37
2022-11-25T10:43:31.945Z,76.58
2022-11-25T10:47:17.517Z,76.25
2022-11-25T10:50:55.438Z,76.21
2022-11-25T10:54:27.635Z,76.19
2022-11-25T10:57:58.017Z,76.43
2022-11-25T11:01:26.539Z,76.22
2022-11-25T11:05:01.696Z,76.34
2022-11-25T11:08:38.364Z,76.15
2022-11-25T11:12:14.947Z,76.20
2022-11-25T11:15:49.955Z,76.31
2022-11-25T11:19:29.394Z,76.22
2022-11-25T11:23:10.477Z,76.28
2022-11-25T11:26:40.173Z,76.34
2022-11-25T11:30:15.811Z,76.54
2022-11-25T11:33:51.498Z,76.43
2022-11-25T11:37:43.924Z,76.57
2022-11-25T11:41:18.574Z,76.58
2022-11-25T11:45:00.628Z,76.50
2022-11-25T11:48:40.312Z,76.18
2022-11-25T11:52:13.157Z,76.21
2022-11-25T11:56:19.298Z,75.82
2022-11-25T11:59:53.783Z,76.32
2022-11-25T12:03:23.402Z,76.31
2022-11-25T12:07:04.266Z,76.16
2022-11-25T12:10:35.151Z,76.35
2022-11-25T12:14:07.030Z,76.02
2022-11-25T12:17:37.352Z,76.04
2022-11-25T12:21:06.558Z,76.16
2022-11-25T12:24:43.507Z,76.22
2022-11-25T12:28:14.286Z,76.13
2022-11-25T12:31:46.093Z,75.97
2022-11-25T12:35:23.400Z,76.24
2022-11-25T12:38:56.299Z,76.13
2022-11-25T12:42:29.943Z,76.10
2022-11-25T12:46:09.578Z,76.00
2022-11-25T12:49:46.959Z,76.17
2022-11-25T12:53:24.495Z,76.20
2022-11-25T12:57:09.319Z,76.15
2022-11-25T13:00:55.219Z,76.29
2022-11-25T13:04:38.445Z,76.32
2022-11-25T13:08:19.889Z,76.14
2022-11-25T13:12:06.036Z,75.96
2022-11-25T13:15:38.520Z,75.78
2022-11-25T13:19:13.519Z,75.82
2022-11-25T13:22:40.101Z,76.04
2022-11-25T13:26:41.013Z,76.00
2022-11-25T13:30:39.410Z,75.79
2022-11-25T13:34:28.305Z,75.78
2022-11-25T13:37:54.984Z,75.66
2022-11-25T13:41:38.752Z,75.69
2022-11-25T13:45:26.355Z,76.09
2022-11-25T13:48:54.514Z,76.13
2022-11-25T13:52:39.576Z,76.08
2022-11-25T13:56:27.049Z,75.98
2022-11-25T14:00:01.366Z,75.77
2022-11-25T14:03:54.373Z,75.94
2022-11-25T14:07:34.223Z,75.84
2022-11-25T14:11:23.828Z,75.94
2022-11-25T14:15:20.782Z,75.85
2022-11-25T14:19:49.612Z,75.88
2022-11-25T14:23:32.259Z,75.82
2022-11-25T14:27:03.566Z,75.82
2022-11-25T14:30:31.898Z,75.45
2022-11-25T14:34:05.047Z,75.63
2022-11-25T14:37:39.354Z,75.65
2022-11-25T14:41:14.587Z,75.53
2022-11-25T14:44:47.812Z,75.65
2022-11-25T14:48:19.169Z,75.80
2022-11-25T14:51:51.290Z,75.87
2022-11-25T14:55:29.980Z,75.92
2022-11-25T14:58:59.208Z,76.01
2022-11-25T15:02:33.532Z,75.91
2022-11-25T15:06:04.928Z,76.01
2022-11-25T15:09:33.912Z,76.08
2022-11-25T15:13:01.966Z,75.95
2022-11-25T15:16:38.629Z,75.90
2022-11-25T15:20:19.141Z,75.79
2022-11-25T15:23:50.926Z,75.89
2022-11-25T15:27:26.492Z,75.48
2022-11-25T15:31:11.278Z,75.65
2022-11-25T15:34:36.914Z,75.47
2022-11-25T15:38:18.146Z,75.45
2022-11-25T15:41:51.656Z,75.51
2022-11-25T15:45:24.431Z,75.56
2022-11-25T15:49:06.003Z,75.33
2022-11-25T15:52:38.505Z,75.30
2022-11-25T15:56:12.146Z,75.54
2022-11-25T15:59:57.920Z,75.51
2022-11-25T16:03:25.305Z,75.73
2022-11-25T16:07:02.754Z,75.88
2022-11-25T16:10:34.550Z,76.05
2022-11-25T16:14:21.601Z,76.02
2022-11-25T16:18:02.638Z,76.17
2022-11-25T16:21:53.929Z,76.01
2022-11-25T16:25:35.623Z,76.00
2022-11-25T16:29:15.712Z,76.01
2022-11-25T16:32:45.642Z,75.62
2022-11-25T16:36:15.382Z,75.74
2022-11-25T16:39:46.065Z,75.63
2022-11-25T16:43:23.020Z,75.52
2022-11-25T16:46:52.985Z,75.48
2022-11-25T16:50:22.896Z,75.47
2022-11-25T16:53:54.160Z,75.24
2022-11-25T16:57:26.852Z,75.38
2022-11-25T17:01:01.192Z,75.40
2022-11-25T17:04:39.673Z,75.43
2022-11-25T17:08:09.434Z,75.63
2022-11-25T17:11:46.123Z,75.67
2022-11-25T17:15:18.826Z,75.68
2022-11-25T17:18:46.791Z,75.70
2022-11-25T17:22:20.607Z,75.87
2022-11-25T17:25:52.413Z,75.78
2022-11-25T17:29:28.911Z,75.88
2022-11-25T17:33:01.982Z,75.92
2022-11-25T17:36:32.888Z,75.78
2022-11-25T17:40:01.859Z,75.65
2022-11-25T17:43:34.809Z,75.57
2022-11-25T17:47:02.152Z,75.61
2022-11-25T17:50:30.229Z,75.57
2022-11-25T17:53:58.378Z,75.63
2022-11-25T17:57:29.356Z,75.46
2022-11-25T18:00:56.541Z,75.31
2022-11-25T18:04:27.403Z,75.25
2022-11-25T18:07:56.976Z,75.18
2022-11-25T18:11:28.869Z,75.23
2022-11-25T18:14:57.006Z,75.07
2022-11-25T18:18:26.167Z,75.34
2022-11-25T18:22:01.311Z,75.46
2022-11-25T18:25:32.347Z,75.43
2022-11-25T18:29:08.537Z,75.37
2022-11-25T18:32:42.976Z,75.73
2022-11-25T18:36:24.433Z,75.85
2022-11-25T18:40:05.986Z,75.75
2022-11-25T18:47:35.360Z,76.01
2022-11-25T18:51:04.409Z,76.04
2022-11-25T18:54:39.968Z,75.92
2022-11-25T18:58:17.755Z,75.89
2022-11-25T19:01:49.599Z,75.56
2022-11-25T19:05:24.370Z,75.51
2022-11-25T19:08:53.543Z,75.43
2022-11-25T19:12:36.768Z,75.44
2022-11-25T19:16:26.275Z,75.45
2022-11-25T19:19:53.692Z,75.24
2022-11-25T19:23:29.849Z,75.16
2022-11-25T19:26:58.399Z,75.27
2022-11-25T19:30:40.253Z,75.34
2022-11-25T19:34:08.749Z,75.24
2022-11-25T19:37:39.198Z,75.48
2022-11-25T19:41:11.050Z,75.32
2022-11-25T19:44:38.776Z,75.47
2022-11-25T19:48:10.351Z,75.54
2022-11-25T19:51:42.902Z,75.50
2022-11-25T19:55:18.948Z,75.71
2022-11-25T19:58:46.325Z,75.82
2022-11-25T20:02:17.818Z,75.82
2022-11-25T20:05:51.775Z,75.93
2022-11-25T20:09:19.842Z,75.92
2022-11-25T20:12:47.799Z,75.68
2022-11-25T20:16:20.315Z,75.65
2022-11-25T20:19:52.222Z,75.28
2022-11-25T20:23:24.721Z,75.12
2022-11-25T20:26:54.708Z,75.07
2022-11-25T20:30:24.911Z,75.21
2022-11-25T20:33:52.656Z,75.30
2022-11-25T20:37:26.145Z,75.09
2022-11-25T20:40:58.560Z,74.99
2022-11-25T20:44:30.445Z,74.91
2022-11-25T20:48:00.354Z,74.95
2022-11-25T20:51:28.302Z,75.10
2022-11-25T20:54:58.447Z,75.28
2022-11-25T20:58:30.544Z,75.41
2022-11-25T21:01:59.358Z,75.43
2022-11-25T21:05:31.733Z,75.57
2022-11-25T21:09:01.352Z,75.59
2022-11-25T21:12:51.220Z,75.52
2022-11-25T21:16:20.099Z,75.32
2022-11-25T21:19:47.150Z,75.31
2022-11-25T21:23:24.832Z,75.09
2022-11-25T21:26:53.457Z,75.04
2022-11-25T21:30:24.712Z,75.00
2022-11-25T21:33:56.008Z,75.07
2022-11-25T21:37:33.319Z,75.11
2022-11-25T21:41:02.167Z,74.86
2022-11-25T21:44:42.204Z,74.89
2022-11-25T21:48:18.285Z,74.83
2022-11-25T21:51:47.076Z,74.79
2022-11-25T21:55:15.588Z,74.90
2022-11-25T21:58:45.295Z,74.80
2022-11-25T22:02:20.329Z,74.90
2022-11-25T22:05:47.083Z,74.89
2022-11-25T22:09:14.030Z,75.02
2022-11-25T22:12:43.417Z,74.98
2022-11-25T22:16:14.762Z,75.08
2022-11-25T22:19:47.938Z,75.09
2022-11-25T22:23:18.433Z,75.22
2022-11-25T22:26:47.171Z,75.10
2022-11-25T22:30:20.911Z,74.97
2022-11-25T22:33:48.650Z,74.90
2022-11-25T22:37:49.343Z,74.95
2022-11-25T22:41:23.471Z,74.86
2022-11-25T22:44:52.997Z,74.74
2022-11-25T22:48:27.754Z,74.68
2022-11-25T22:51:55.952Z,74.53
2022-11-25T22:55:26.145Z,74.54
2022-11-25T22:59:00.327Z,74.53
2022-11-25T23:02:34.410Z,74.67
2022-11-25T23:06:02.160Z,74.47
2022-11-25T23:09:29.722Z,74.69
2022-11-25T23:12:57.110Z,74.66
2022-11-25T23:16:24.122Z,74.62
2022-11-25T23:19:52.642Z,74.76
2022-11-25T23:23:21.063Z,75.00
2022-11-25T23:27:03.241Z,74.73
2022-11-25T23:30:31.216Z,74.84
2022-11-25T23:33:58.354Z,74.72
2022-11-25T23:37:25.445Z,74.98
2022-11-25T23:40:52.077Z,74.86
2022-11-25T23:44:24.241Z,74.71
2022-11-25T23:47:54.379Z,74.55
2022-11-25T23:51:22.352Z,74.59
2022-11-25T23:54:51.492Z,74.59
2022-11-25T23:58:20.946Z,74.53
